Time;durP1;ratioP1;P1;durP2;ratioP2;P2;SDS_P1;SDS_P2;PMS_P1;PMS_P2;Temp;Humidity;BMP_temperature;BMP_pressure;BME280_temperature;BME280_humidity;BME280_pressure;Samples;Min_cycle;Max_cycle;Signal;HPM_P1;HPM_P2
2022/01/07 00:01:21;;;;;;;23.00;7.95;;;3.40;99.90;;;;;;4890184;29;20096;-78
2022/01/07 00:03:46;;;;;;;24.65;7.13;;;3.40;99.90;;;;;;4914566;29;20052;-78
2022/01/07 00:06:12;;;;;;;17.73;7.68;;;3.40;99.90;;;;;;4888886;29;20058;-78
2022/01/07 00:08:38;;;;;;;16.88;6.80;;;3.40;99.90;;;;;;4884057;29;20095;-79
2022/01/07 00:11:04;;;;;;;24.90;6.72;;;3.40;99.90;;;;;;4915571;29;20060;-78
2022/01/07 00:13:29;;;;;;;22.13;7.25;;;3.40;99.90;;;;;;4907397;29;20055;-78
2022/01/07 00:15:55;;;;;;;18.98;7.15;;;3.40;99.90;;;;;;4898567;29;20079;-78
2022/01/07 00:18:23;;;;;;;19.48;7.90;;;3.40;99.90;;;;;;4898772;29;20509;-84
2022/01/07 00:20:49;;;;;;;18.33;7.00;;;3.40;99.90;;;;;;4895739;29;20056;-78
2022/01/07 00:23:15;;;;;;;21.17;6.90;;;3.40;99.90;;;;;;4885902;29;20132;-78
2022/01/07 00:25:40;;;;;;;17.10;6.47;;;3.40;99.90;;;;;;4896768;29;20135;-79
2022/01/07 00:28:06;;;;;;;17.55;6.25;;;3.40;99.90;;;;;;4869608;29;20063;-81
2022/01/07 00:30:33;;;;;;;16.60;6.63;;;3.50;99.90;;;;;;4902241;29;20047;-78
2022/01/07 00:33:00;;;;;;;22.27;7.60;;;3.40;99.90;;;;;;4910713;29;20056;-78
2022/01/07 00:35:25;;;;;;;17.35;6.03;;;3.40;99.90;;;;;;4901120;29;20048;-78
2022/01/07 00:37:51;;;;;;;18.42;8.05;;;3.40;99.90;;;;;;4900399;29;20056;-82
2022/01/07 00:40:21;;;;;;;21.60;6.60;;;3.30;99.90;;;;;;4868383;29;20127;-78
2022/01/07 00:42:49;;;;;;;19.15;6.50;;;3.30;99.90;;;;;;4908630;29;20058;-82
2022/01/07 00:45:16;;;;;;;16.10;6.65;;;3.30;99.90;;;;;;4881543;29;20061;-78
2022/01/07 00:47:41;;;;;;;19.67;6.68;;;3.20;99.90;;;;;;4904622;29;20394;-79
2022/01/07 00:50:08;;;;;;;14.93;6.40;;;3.20;99.90;;;;;;4898986;29;20054;-79
2022/01/07 00:52:34;;;;;;;21.30;6.72;;;3.10;99.90;;;;;;4913888;29;20085;-78
2022/01/07 00:55:00;;;;;;;14.48;6.78;;;3.00;99.90;;;;;;4883205;29;20561;-78
2022/01/07 00:57:26;;;;;;;14.02;5.50;;;3.00;99.90;;;;;;4898359;29;20618;-84
2022/01/07 00:59:52;;;;;;;13.45;5.93;;;2.90;99.90;;;;;;4897755;29;20054;-79
2022/01/07 01:02:17;;;;;;;18.20;6.80;;;2.90;99.90;;;;;;4907530;29;20044;-79
2022/01/07 01:04:44;;;;;;;21.17;6.85;;;2.80;99.90;;;;;;4886849;29;20127;-78
2022/01/07 01:07:13;;;;;;;17.85;6.88;;;2.80;99.90;;;;;;4915237;29;20047;-78
2022/01/07 01:09:40;;;;;;;17.50;6.80;;;2.70;99.90;;;;;;4887940;29;20458;-79
2022/01/07 01:12:06;;;;;;;18.27;7.43;;;2.70;99.90;;;;;;4911239;29;20050;-78
2022/01/07 01:14:32;;;;;;;22.08;6.53;;;2.60;99.90;;;;;;4898532;29;20059;-79
2022/01/07 01:16:59;;;;;;;23.02;6.90;;;2.60;99.90;;;;;;4899489;29;20467;-78
2022/01/07 01:19:26;;;;;;;14.32;7.47;;;2.60;99.90;;;;;;4898204;29;20043;-78
2022/01/07 01:21:52;;;;;;;19.40;6.18;;;2.50;99.90;;;;;;4897324;29;20104;-79
2022/01/07 01:24:17;;;;;;;16.77;7.25;;;2.50;99.90;;;;;;4897701;29;20044;-80
2022/01/07 01:26:43;;;;;;;20.73;5.68;;;2.50;99.90;;;;;;4914007;29;20390;-78
2022/01/07 01:29:09;;;;;;;24.83;7.30;;;2.40;99.90;;;;;;4914494;29;20044;-79
2022/01/07 01:31:36;;;;;;;16.88;7.45;;;2.40;99.90;;;;;;4897187;29;20048;-80
2022/01/07 01:34:02;;;;;;;16.85;7.03;;;2.40;99.90;;;;;;4889403;29;20059;-78
2022/01/07 01:36:28;;;;;;;22.15;8.93;;;2.40;99.90;;;;;;4902188;29;20052;-78
2022/01/07 01:38:54;;;;;;;21.27;7.30;;;2.40;99.90;;;;;;4891111;29;20059;-78
2022/01/07 01:41:20;;;;;;;24.42;7.85;;;2.40;99.90;;;;;;4883730;29;20052;-78
2022/01/07 01:43:48;;;;;;;21.25;7.90;;;2.40;99.90;;;;;;4893450;29;20056;-78
2022/01/07 01:46:16;;;;;;;20.80;8.27;;;2.40;99.90;;;;;;4886780;29;20224;-78
2022/01/07 01:48:42;;;;;;;23.80;8.07;;;2.40;99.90;;;;;;4894344;29;20047;-79
2022/01/07 01:51:08;;;;;;;19.30;8.55;;;2.40;99.90;;;;;;4892986;29;20107;-78
2022/01/07 01:53:34;;;;;;;24.73;8.20;;;2.40;99.90;;;;;;4896588;29;20060;-84
2022/01/07 01:56:00;;;;;;;21.77;8.60;;;2.40;99.90;;;;;;4886176;29;20131;-79
2022/01/07 01:58:26;;;;;;;28.25;8.57;;;2.40;99.90;;;;;;4905362;29;20052;-78
2022/01/07 02:00:52;;;;;;;21.15;8.88;;;2.40;99.90;;;;;;4896622;29;20490;-79
2022/01/07 02:03:18;;;;;;;22.65;8.57;;;2.40;99.90;;;;;;4907843;29;20043;-78
2022/01/07 02:05:47;;;;;;;27.75;10.10;;;2.40;99.90;;;;;;4896933;29;20051;-78
2022/01/07 02:08:13;;;;;;;20.50;9.27;;;2.40;99.90;;;;;;4884982;29;20123;-81
2022/01/07 02:10:39;;;;;;;27.80;9.68;;;2.40;99.90;;;;;;4896939;29;20475;-78
2022/01/07 02:13:05;;;;;;;24.35;9.25;;;2.30;99.90;;;;;;4897582;29;20048;-78
2022/01/07 02:15:31;;;;;;;20.48;10.13;;;2.30;99.90;;;;;;4913743;29;20102;-78
2022/01/07 02:17:57;;;;;;;22.83;9.75;;;2.30;99.90;;;;;;4900657;29;20056;-82
2022/01/07 02:20:25;;;;;;;24.58;10.05;;;2.20;99.90;;;;;;4900754;29;20171;-79
2022/01/07 02:22:52;;;;;;;24.45;10.30;;;2.20;99.90;;;;;;4901444;29;20063;-79
2022/01/07 02:25:20;;;;;;;26.60;9.93;;;2.30;99.90;;;;;;4902326;29;20127;-79
2022/01/07 02:27:47;;;;;;;26.38;10.05;;;2.20;99.90;;;;;;4896191;29;20056;-78
2022/01/07 02:30:16;;;;;;;25.00;11.07;;;2.30;99.90;;;;;;4908955;29;20052;-78
2022/01/07 02:32:42;;;;;;;31.10;11.30;;;2.20;99.90;;;;;;4917820;29;20495;-78
2022/01/07 02:35:08;;;;;;;23.13;10.48;;;2.20;99.90;;;;;;4912025;29;20403;-77
2022/01/07 02:37:35;;;;;;;21.52;10.82;;;2.20;99.90;;;;;;4919258;29;20052;-77
2022/01/07 02:40:02;;;;;;;25.92;10.48;;;2.20;99.90;;;;;;4913864;29;20411;-77
2022/01/07 02:42:28;;;;;;;21.85;10.85;;;2.20;99.90;;;;;;4918118;29;20622;-77
2022/01/07 02:44:54;;;;;;;31.85;11.13;;;2.20;99.90;;;;;;4886150;29;20139;-77
2022/01/07 02:47:21;;;;;;;26.60;11.27;;;2.20;99.90;;;;;;4918154;29;20052;-77
2022/01/07 02:49:48;;;;;;;25.88;10.73;;;2.10;99.90;;;;;;4900929;29;20517;-78
2022/01/07 02:52:14;;;;;;;30.77;11.93;;;2.10;99.90;;;;;;4906826;29;20048;-78
2022/01/07 02:54:39;;;;;;;33.33;12.60;;;2.10;99.90;;;;;;4918343;29;20108;-84
2022/01/07 02:57:05;;;;;;;24.27;12.23;;;2.20;99.90;;;;;;4900047;29;20044;-78
2022/01/07 02:59:31;;;;;;;27.77;12.68;;;2.10;99.90;;;;;;4898544;29;20380;-78
2022/01/07 03:01:57;;;;;;;26.40;11.98;;;2.20;99.90;;;;;;4909064;29;20071;-78
2022/01/07 03:04:23;;;;;;;25.52;12.85;;;2.20;99.90;;;;;;4906971;29;20517;-77
2022/01/07 03:06:50;;;;;;;22.15;11.55;;;2.20;99.90;;;;;;4914058;29;20103;-77
2022/01/07 03:09:15;;;;;;;25.70;12.35;;;2.20;99.90;;;;;;4885872;29;20060;-77
2022/01/07 03:11:41;;;;;;;22.42;12.32;;;2.20;99.90;;;;;;4917712;29;20112;-83
2022/01/07 03:14:07;;;;;;;26.80;12.43;;;2.20;99.90;;;;;;4907433;29;20040;-78
2022/01/07 03:16:33;;;;;;;28.27;11.50;;;2.30;99.90;;;;;;4901448;29;20063;-78
2022/01/07 03:18:59;;;;;;;23.23;12.68;;;2.20;99.90;;;;;;4899724;29;20090;-78
2022/01/07 03:21:25;;;;;;;33.80;13.27;;;2.20;99.90;;;;;;4888276;29;20059;-78
2022/01/07 03:23:51;;;;;;;25.17;13.00;;;2.20;99.90;;;;;;4903928;29;20103;-78
2022/01/07 03:26:17;;;;;;;23.85;12.65;;;2.30;99.90;;;;;;4917069;29;20087;-78
2022/01/07 03:28:44;;;;;;;25.20;12.57;;;2.30;99.90;;;;;;4915331;29;20127;-84
2022/01/07 03:31:10;;;;;;;21.60;11.73;;;2.30;99.90;;;;;;4903961;29;20124;-77
2022/01/07 03:33:36;;;;;;;23.25;12.43;;;2.30;99.90;;;;;;4901190;29;20169;-82
2022/01/07 03:36:02;;;;;;;24.00;13.52;;;2.30;99.90;;;;;;4900884;29;20549;-78
2022/01/07 03:38:28;;;;;;;28.42;13.32;;;2.30;99.90;;;;;;4893518;29;20056;-77
2022/01/07 03:40:55;;;;;;;24.52;13.10;;;2.30;99.90;;;;;;4909669;29;20566;-77
2022/01/07 03:43:21;;;;;;;26.75;13.85;;;2.30;99.90;;;;;;4896923;29;20376;-77
2022/01/07 03:45:46;;;;;;;24.35;12.77;;;2.30;99.90;;;;;;4887058;29;20075;-81
2022/01/07 03:48:12;;;;;;;25.00;13.43;;;2.30;99.90;;;;;;4899678;29;20052;-78
2022/01/07 03:50:38;;;;;;;23.95;13.77;;;2.40;99.90;;;;;;4915762;29;20044;-78
2022/01/07 03:53:04;;;;;;;24.63;13.75;;;2.30;99.90;;;;;;4901824;29;20058;-78
2022/01/07 03:55:31;;;;;;;26.65;14.93;;;2.40;99.90;;;;;;4901420;29;20094;-78
2022/01/07 03:57:57;;;;;;;26.58;13.93;;;2.40;99.90;;;;;;4916094;29;20531;-80
2022/01/07 04:00:32;;;;;;;23.73;13.30;;;2.40;99.90;;;;;;4889915;29;20044;-78
2022/01/07 04:02:59;;;;;;;23.33;13.63;;;2.40;99.90;;;;;;4905029;29;20052;-78
2022/01/07 04:05:25;;;;;;;27.10;14.13;;;2.50;99.90;;;;;;4886722;29;20497;-77
2022/01/07 04:07:51;;;;;;;23.00;13.23;;;2.50;99.90;;;;;;4901599;29;20048;-77
2022/01/07 04:10:17;;;;;;;24.90;13.52;;;2.50;99.90;;;;;;4900248;29;20068;-78
2022/01/07 04:12:42;;;;;;;26.00;14.65;;;2.50;99.90;;;;;;4911513;29;20063;-77
2022/01/07 04:15:09;;;;;;;28.15;14.18;;;2.50;99.90;;;;;;4884074;29;20047;-77
2022/01/07 04:17:40;;;;;;;25.17;13.73;;;2.50;99.90;;;;;;4891184;29;20076;-76
2022/01/07 04:20:08;;;;;;;24.83;14.02;;;2.50;99.90;;;;;;4896189;29;20059;-78
2022/01/07 04:22:34;;;;;;;26.65;12.82;;;2.50;99.90;;;;;;4921848;29;20040;-76
2022/01/07 04:25:03;;;;;;;24.77;12.88;;;2.50;99.90;;;;;;4894271;29;20060;-76
2022/01/07 04:27:30;;;;;;;23.35;13.38;;;2.50;99.90;;;;;;4914558;29;20048;-76
2022/01/07 04:29:56;;;;;;;21.13;11.95;;;2.50;99.90;;;;;;4901310;29;20068;-80
2022/01/07 04:32:22;;;;;;;31.88;14.65;;;2.50;99.90;;;;;;4916318;29;20048;-77
2022/01/07 04:34:48;;;;;;;24.75;13.77;;;2.50;99.90;;;;;;4890435;29;20439;-76
2022/01/07 04:37:14;;;;;;;28.65;13.10;;;2.50;99.90;;;;;;4886953;29;20052;-77
2022/01/07 04:39:39;;;;;;;28.20;13.57;;;2.50;99.90;;;;;;4896308;29;20052;-77
2022/01/07 04:42:06;;;;;;;22.40;13.23;;;2.50;99.90;;;;;;4916173;29;20439;-77
2022/01/07 04:44:31;;;;;;;21.92;12.93;;;2.50;99.90;;;;;;4873832;29;20052;-78
2022/01/07 04:46:57;;;;;;;23.23;12.43;;;2.50;99.90;;;;;;4904146;29;20048;-78
2022/01/07 04:49:23;;;;;;;21.20;12.43;;;2.50;99.90;;;;;;4903344;29;20213;-79
2022/01/07 04:51:48;;;;;;;20.02;12.05;;;2.60;99.90;;;;;;4890572;29;20052;-78
2022/01/07 04:54:14;;;;;;;24.55;12.93;;;2.60;99.90;;;;;;4904141;29;20056;-78
2022/01/07 04:56:40;;;;;;;27.40;13.63;;;2.60;99.90;;;;;;4904575;29;20048;-79
2022/01/07 04:59:05;;;;;;;26.50;12.95;;;2.50;99.90;;;;;;4915160;29;20044;-77
2022/01/07 05:01:31;;;;;;;22.55;12.80;;;2.60;99.90;;;;;;4915495;29;20052;-77
2022/01/07 05:03:56;;;;;;;26.40;13.32;;;2.60;99.90;;;;;;4904923;29;20108;-79
2022/01/07 05:08:48;;;;;;;20.88;11.50;;;2.60;99.90;;;;;;4900798;29;20063;-76
2022/01/07 05:11:13;;;;;;;17.20;10.98;;;2.60;99.90;;;;;;4886346;29;20576;-77
2022/01/07 05:13:39;;;;;;;19.58;11.52;;;2.60;99.90;;;;;;4901835;29;20043;-77
2022/01/07 05:16:05;;;;;;;19.15;11.15;;;2.60;99.90;;;;;;4898798;29;20507;-77
2022/01/07 05:18:31;;;;;;;12.90;7.47;;;2.60;99.90;;;;;;4915111;29;20063;-78
2022/01/07 05:20:57;;;;;;;16.92;11.05;;;2.70;99.90;;;;;;4915176;29;20048;-84
2022/01/07 05:23:23;;;;;;;22.30;12.52;;;2.60;99.90;;;;;;4915304;29;20046;-77
2022/01/07 05:25:49;;;;;;;19.83;11.35;;;2.60;99.90;;;;;;4901880;29;20122;-77
2022/01/07 05:28:15;;;;;;;20.65;11.30;;;2.60;99.90;;;;;;4891535;29;20082;-77
2022/01/07 05:30:40;;;;;;;17.35;10.35;;;2.60;99.90;;;;;;4898979;29;20055;-78
2022/01/07 05:33:06;;;;;;;18.40;10.77;;;2.60;99.90;;;;;;4900364;29;20060;-81
2022/01/07 05:35:32;;;;;;;18.50;10.68;;;2.60;99.90;;;;;;4897349;29;20107;-77
2022/01/07 05:37:57;;;;;;;18.05;10.90;;;2.60;99.90;;;;;;4915578;29;20052;-83
2022/01/07 05:40:23;;;;;;;19.17;9.75;;;2.60;99.90;;;;;;4898054;29;20067;-77
2022/01/07 05:42:49;;;;;;;16.35;9.88;;;2.70;99.90;;;;;;4885704;29;20478;-77
2022/01/07 05:45:15;;;;;;;19.42;10.40;;;2.60;99.90;;;;;;4913522;29;20083;-77
2022/01/07 05:47:41;;;;;;;18.13;10.73;;;2.60;99.90;;;;;;4906675;29;20793;-76
2022/01/07 05:50:08;;;;;;;18.33;10.65;;;2.60;99.90;;;;;;4914612;29;20066;-77
2022/01/07 05:52:33;;;;;;;20.65;10.07;;;2.60;99.90;;;;;;4900135;29;20506;-77
2022/01/07 05:54:59;;;;;;;16.70;10.23;;;2.60;99.90;;;;;;4913739;29;20052;-83
2022/01/07 05:57:25;;;;;;;19.27;10.32;;;2.70;99.90;;;;;;4899366;29;20560;-77
2022/01/07 05:59:50;;;;;;;15.30;10.43;;;2.60;99.90;;;;;;4898424;29;20055;-77
2022/01/07 06:02:16;;;;;;;19.23;10.02;;;2.60;99.90;;;;;;4897761;29;20048;-82
2022/01/07 06:04:42;;;;;;;17.65;9.88;;;2.60;99.90;;;;;;4885672;29;20044;-77
2022/01/07 06:07:07;;;;;;;15.88;9.15;;;2.70;99.90;;;;;;4886399;29;20111;-80
2022/01/07 06:09:34;;;;;;;19.90;10.30;;;2.60;99.90;;;;;;4879219;29;20463;-78
2022/01/07 06:11:59;;;;;;;18.45;10.15;;;2.60;99.90;;;;;;4867977;29;20066;-78
2022/01/07 06:14:26;;;;;;;16.98;9.35;;;2.70;99.90;;;;;;4897903;29;20059;-77
2022/01/07 06:16:52;;;;;;;16.83;9.70;;;2.60;99.90;;;;;;4899595;29;20060;-80
2022/01/07 06:19:18;;;;;;;14.48;8.27;;;2.60;99.90;;;;;;4880928;29;20070;-78
2022/01/07 06:21:44;;;;;;;14.25;9.02;;;2.70;99.90;;;;;;4896803;29;20482;-79
2022/01/07 06:24:09;;;;;;;14.20;9.98;;;2.70;99.90;;;;;;4913553;29;20063;-78
2022/01/07 06:26:35;;;;;;;17.17;9.85;;;2.70;99.90;;;;;;4914590;29;20099;-79
2022/01/07 06:29:01;;;;;;;15.77;9.77;;;2.70;99.90;;;;;;4904388;29;20105;-81
2022/01/07 06:31:28;;;;;;;15.85;9.52;;;2.70;99.90;;;;;;4896626;29;20088;-83
2022/01/07 06:33:53;;;;;;;17.02;8.75;;;2.70;99.90;;;;;;4905251;29;20051;-81
2022/01/07 06:36:19;;;;;;;14.48;8.18;;;2.70;99.90;;;;;;4912888;29;20048;-82
2022/01/07 06:38:45;;;;;;;15.52;10.18;;;2.70;99.90;;;;;;4896258;29;20565;-78
2022/01/07 06:41:10;;;;;;;15.73;9.68;;;2.80;99.90;;;;;;4903524;29;20044;-80
2022/01/07 06:43:36;;;;;;;14.50;9.38;;;2.80;99.90;;;;;;4896970;29;20419;-82
2022/01/07 06:46:02;;;;;;;16.58;9.88;;;2.80;99.90;;;;;;4892295;29;20059;-79
2022/01/07 06:48:28;;;;;;;15.55;9.88;;;2.80;99.90;;;;;;4909620;29;20059;-80
2022/01/07 06:50:53;;;;;;;15.25;10.10;;;2.80;99.90;;;;;;4903246;29;20044;-81
2022/01/07 06:53:19;;;;;;;20.35;10.38;;;2.80;99.90;;;;;;4902765;29;20532;-81
2022/01/07 06:55:44;;;;;;;17.98;10.60;;;2.80;99.90;;;;;;4878881;29;20040;-81
2022/01/07 06:58:10;;;;;;;16.40;9.40;;;2.80;99.90;;;;;;4884161;29;20048;-81
2022/01/07 07:00:36;;;;;;;14.85;9.90;;;2.90;99.90;;;;;;4900789;29;20048;-81
2022/01/07 07:03:01;;;;;;;16.38;10.60;;;2.90;99.90;;;;;;4894343;29;20040;-81
2022/01/07 07:05:27;;;;;;;18.60;11.23;;;2.90;99.90;;;;;;4900421;29;20247;-81
2022/01/07 07:07:53;;;;;;;19.58;10.55;;;2.90;99.90;;;;;;4885265;29;20083;-83
2022/01/07 07:10:19;;;;;;;17.40;10.10;;;2.90;99.90;;;;;;4884422;29;20513;-81
2022/01/07 07:12:44;;;;;;;15.48;10.48;;;2.90;99.90;;;;;;4900495;29;20056;-80
2022/01/07 07:15:10;;;;;;;17.67;11.10;;;2.90;99.90;;;;;;4900164;29;20055;-86
2022/01/07 07:17:36;;;;;;;15.80;10.10;;;2.90;99.90;;;;;;4900181;29;20802;-80
2022/01/07 07:20:03;;;;;;;17.33;10.68;;;3.00;99.90;;;;;;4900712;29;20059;-82
2022/01/07 07:22:29;;;;;;;17.27;10.23;;;3.00;99.90;;;;;;4899859;29;20496;-80
2022/01/07 07:24:55;;;;;;;18.80;10.82;;;3.00;99.90;;;;;;4900836;29;20044;-81
2022/01/07 07:27:21;;;;;;;14.43;9.60;;;3.00;99.90;;;;;;4885114;29;20159;-80
2022/01/07 07:29:46;;;;;;;21.00;11.10;;;3.00;99.90;;;;;;4891975;29;20147;-81
2022/01/07 07:32:15;;;;;;;18.60;11.27;;;3.00;99.90;;;;;;4908566;29;20055;-88
2022/01/07 07:37:08;;;;;;;18.30;11.48;;;3.10;99.90;;;;;;4926441;29;20060;-82
2022/01/07 07:39:34;;;;;;;18.88;12.90;;;3.10;99.90;;;;;;4904602;29;20079;-80
2022/01/07 07:41:59;;;;;;;19.83;11.90;;;3.10;99.90;;;;;;4904059;29;20406;-81
2022/01/07 07:44:25;;;;;;;19.45;10.30;;;3.10;99.90;;;;;;4899435;29;20051;-80
2022/01/07 07:46:51;;;;;;;20.73;12.65;;;3.10;99.90;;;;;;4872728;29;20052;-80
2022/01/07 07:49:18;;;;;;;21.98;12.60;;;3.10;99.90;;;;;;4877190;29;20060;-82
2022/01/07 07:51:46;;;;;;;23.15;13.57;;;3.20;99.90;;;;;;4890303;29;20099;-81
2022/01/07 07:54:13;;;;;;;19.85;13.25;;;3.20;99.90;;;;;;4885727;29;20141;-81
2022/01/07 07:56:39;;;;;;;24.58;13.82;;;3.30;99.90;;;;;;4887305;29;20060;-81
2022/01/07 07:59:05;;;;;;;20.80;12.93;;;3.20;99.90;;;;;;4922111;29;20050;-79
2022/01/07 08:01:30;;;;;;;23.60;14.43;;;3.30;99.90;;;;;;4915208;29;20123;-79
2022/01/07 08:03:56;;;;;;;24.08;14.75;;;3.30;99.90;;;;;;4915491;29;20135;-81
2022/01/07 08:06:22;;;;;;;25.75;14.25;;;3.20;99.90;;;;;;4890880;29;20035;-80
2022/01/07 08:08:48;;;;;;;29.27;15.05;;;3.30;99.90;;;;;;4905813;29;20075;-80
2022/01/07 08:11:14;;;;;;;22.50;14.93;;;3.30;99.90;;;;;;4900607;29;20086;-80
2022/01/07 08:16:25;;;;;;;25.25;15.65;;;3.40;99.90;;;;;;4899489;29;20059;-80
2022/01/07 08:18:53;;;;;;;30.13;15.45;;;3.40;99.90;;;;;;4913527;29;20490;-80
2022/01/07 08:21:20;;;;;;;28.80;16.85;;;3.40;99.90;;;;;;4899322;29;20048;-84
2022/01/07 08:23:46;;;;;;;29.45;16.08;;;3.50;99.90;;;;;;4898415;29;20044;-81
2022/01/07 08:26:15;;;;;;;28.02;16.25;;;3.50;99.90;;;;;;4902220;29;20112;-80
2022/01/07 08:28:46;;;;;;;26.55;16.58;;;3.50;99.90;;;;;;4899875;29;20048;-81
2022/01/07 08:36:27;;;;;;;36.80;18.65;;;3.60;99.90;;;;;;4898965;29;20135;-79
2022/01/07 08:38:53;;;;;;;38.25;18.33;;;3.70;99.90;;;;;;4883583;29;20048;-79
2022/01/07 08:41:22;;;;;;;29.38;17.30;;;3.70;99.90;;;;;;4898417;29;20051;-85
2022/01/07 08:43:48;;;;;;;32.80;17.95;;;3.80;99.90;;;;;;4902917;29;20123;-79
2022/01/07 08:46:14;;;;;;;33.50;17.77;;;3.80;99.90;;;;;;4911491;29;20135;-80
2022/01/07 08:48:40;;;;;;;33.15;18.63;;;3.80;99.90;;;;;;4908382;29;20123;-79
2022/01/07 08:51:07;;;;;;;37.05;19.30;;;3.80;99.90;;;;;;4898630;29;20458;-80
2022/01/07 08:53:33;;;;;;;36.72;18.83;;;3.80;99.90;;;;;;4898961;29;20099;-81
2022/01/07 08:55:59;;;;;;;34.25;18.17;;;3.90;99.90;;;;;;4898478;29;20171;-80
2022/01/07 08:58:25;;;;;;;38.40;18.70;;;4.00;99.90;;;;;;4897273;29;20139;-80
2022/01/07 09:00:51;;;;;;;33.13;19.42;;;4.00;99.90;;;;;;4898420;29;20048;-80
2022/01/07 09:03:17;;;;;;;38.03;18.73;;;4.10;99.90;;;;;;4909408;29;20044;-80
2022/01/07 09:05:43;;;;;;;33.28;18.08;;;4.10;99.90;;;;;;4894703;29;20115;-80
2022/01/07 09:08:12;;;;;;;37.00;19.90;;;4.10;99.90;;;;;;4898570;29;20052;-80
2022/01/07 09:10:41;;;;;;;35.70;19.00;;;4.20;99.90;;;;;;4881566;29;20509;-80
2022/01/07 09:13:08;;;;;;;35.15;19.70;;;4.20;99.90;;;;;;4867527;29;20066;-80
2022/01/07 09:15:34;;;;;;;37.03;19.55;;;4.20;99.90;;;;;;4898170;29;20048;-81
2022/01/07 09:18:09;;;;;;;39.92;18.42;;;4.30;99.90;;;;;;4881799;29;20051;-80
2022/01/07 09:20:38;;;;;;;36.45;19.48;;;4.30;99.90;;;;;;4890266;29;20063;-79
2022/01/07 09:23:05;;;;;;;40.08;20.35;;;4.30;99.90;;;;;;4907642;29;20083;-78
2022/01/07 09:25:31;;;;;;;40.10;20.58;;;4.30;99.90;;;;;;4898503;29;20047;-78
2022/01/07 09:27:56;;;;;;;39.45;20.30;;;4.40;99.90;;;;;;4894873;29;20060;-81
2022/01/07 09:30:22;;;;;;;33.55;18.88;;;4.30;99.90;;;;;;4882592;29;20491;-79
2022/01/07 09:32:48;;;;;;;36.20;20.48;;;4.40;99.90;;;;;;4897995;29;20052;-79
2022/01/07 09:35:16;;;;;;;33.38;19.75;;;4.40;99.90;;;;;;4882678;29;20059;-80
2022/01/07 09:37:42;;;;;;;35.13;19.88;;;4.50;99.90;;;;;;4897189;29;20138;-80
2022/01/07 09:40:09;;;;;;;34.88;19.10;;;4.60;99.90;;;;;;4897333;29;20471;-79
2022/01/07 09:42:34;;;;;;;33.65;18.77;;;4.60;99.90;;;;;;4882824;29;20044;-79
2022/01/07 09:45:00;;;;;;;34.15;18.70;;;4.70;99.90;;;;;;4897696;29;20059;-79
2022/01/07 09:47:27;;;;;;;35.70;18.38;;;4.70;99.90;;;;;;4899449;29;20052;-80
2022/01/07 09:49:54;;;;;;;33.08;18.83;;;4.70;99.90;;;;;;4914455;29;20048;-80
2022/01/07 09:52:19;;;;;;;37.58;20.77;;;4.80;99.90;;;;;;4896278;29;20052;-81
2022/01/07 09:54:47;;;;;;;38.22;20.63;;;4.80;99.90;;;;;;4880177;29;20051;-79
2022/01/07 09:57:13;;;;;;;30.67;18.77;;;4.70;99.90;;;;;;4897142;29;20480;-80
2022/01/07 09:59:39;;;;;;;36.58;19.60;;;4.70;99.90;;;;;;4897023;29;20410;-79
2022/01/07 10:02:07;;;;;;;33.22;17.88;;;4.60;99.90;;;;;;4894348;29;20435;-81
2022/01/07 10:04:40;;;;;;;43.08;20.05;;;4.60;99.90;;;;;;4874264;29;20422;-81
2022/01/07 10:07:23;;;;;;;45.05;20.60;;;4.60;99.90;;;;;;4876747;29;20406;-80
2022/01/07 10:10:05;;;;;;;33.17;17.20;;;4.70;99.90;;;;;;4895879;29;20044;-80
2022/01/07 10:12:47;;;;;;;44.75;22.25;;;4.60;99.90;;;;;;4910552;29;20056;-84
2022/01/07 10:15:15;;;;;;;37.47;18.65;;;4.60;99.90;;;;;;4910164;29;20478;-80
2022/01/07 10:17:52;;;;;;;32.67;18.40;;;4.60;99.90;;;;;;4893881;29;20055;-81
2022/01/07 10:20:26;;;;;;;36.30;17.55;;;4.60;99.90;;;;;;4879417;29;20044;-79
2022/01/07 10:22:57;;;;;;;16.67;9.02;;;4.60;99.90;;;;;;4892368;29;20696;-81
2022/01/07 10:25:31;;;;;;;15.00;8.45;;;4.50;99.90;;;;;;4906710;29;20051;-80
2022/01/07 10:28:06;;;;;;;11.30;6.57;;;4.40;99.90;;;;;;4894338;29;20066;-81
2022/01/07 10:30:45;;;;;;;13.70;7.18;;;4.50;99.90;;;;;;4911107;29;20430;-81
2022/01/07 10:33:36;;;;;;;12.80;7.30;;;4.60;99.90;;;;;;4893846;29;20056;-80
2022/01/07 10:36:08;;;;;;;6.95;4.68;;;4.60;99.90;;;;;;4891502;29;20051;-82
2022/01/07 10:38:53;;;;;;;7.57;4.18;;;4.50;99.90;;;;;;4897454;29;20040;-83
2022/01/07 10:41:19;;;;;;;5.80;3.50;;;4.40;99.90;;;;;;4914693;29;20051;-81
2022/01/07 10:43:46;;;;;;;6.65;3.50;;;4.30;99.90;;;;;;4889410;29;21416;-81
2022/01/07 10:46:24;;;;;;;8.15;3.70;;;4.20;99.90;;;;;;4893084;29;20570;-80
2022/01/07 10:48:54;;;;;;;6.47;3.85;;;4.10;99.90;;;;;;4899287;29;20494;-81
2022/01/07 10:51:31;;;;;;;16.10;7.20;;;4.00;99.90;;;;;;4913120;29;20044;-82
2022/01/07 10:54:04;;;;;;;12.65;6.15;;;4.00;99.90;;;;;;4892362;29;20059;-81
2022/01/07 10:56:47;;;;;;;14.40;7.32;;;3.90;99.90;;;;;;4897089;29;20056;-81
2022/01/07 10:59:14;;;;;;;11.07;7.38;;;4.00;99.90;;;;;;4880369;29;20383;-80
2022/01/07 11:01:48;;;;;;;14.20;7.93;;;4.00;99.90;;;;;;4897373;29;20052;-80
2022/01/07 11:04:19;;;;;;;18.02;8.55;;;4.10;99.90;;;;;;4912584;29;20129;-80
2022/01/07 11:06:46;;;;;;;18.92;8.20;;;4.10;99.90;;;;;;4883978;29;20063;-80
2022/01/07 11:09:14;;;;;;;17.73;8.75;;;4.10;99.90;;;;;;4900081;29;20043;-80
2022/01/07 11:11:53;;;;;;;17.52;9.60;;;4.40;99.90;;;;;;4884455;29;20067;-84
2022/01/07 11:14:25;;;;;;;18.25;8.57;;;4.40;99.90;;;;;;4900046;29;20056;-79
2022/01/07 11:16:52;;;;;;;15.30;7.97;;;4.60;99.90;;;;;;4915237;29;20060;-79
2022/01/07 11:19:24;;;;;;;20.77;8.48;;;4.60;99.90;;;;;;4900194;29;20052;-81
2022/01/07 11:21:52;;;;;;;19.05;8.40;;;4.80;99.90;;;;;;4899178;29;20048;-80
2022/01/07 11:24:39;;;;;;;18.42;9.10;;;4.80;99.90;;;;;;4899934;29;20055;-81
2022/01/07 11:27:04;;;;;;;20.35;9.75;;;4.90;99.90;;;;;;4892011;29;20079;-78
2022/01/07 11:29:30;;;;;;;15.27;9.10;;;5.00;99.90;;;;;;4899540;29;20091;-76
2022/01/07 11:32:34;;;;;;;16.92;9.02;;;5.10;99.90;;;;;;4898761;29;20157;-78
2022/01/07 11:35:19;;;;;;;21.63;10.80;;;5.10;99.90;;;;;;4883882;29;20146;-77
2022/01/07 11:37:48;;;;;;;17.73;9.65;;;5.10;99.90;;;;;;4900421;29;20176;-76
2022/01/07 11:40:29;;;;;;;18.85;9.65;;;5.10;99.90;;;;;;4916596;29;20052;-77
2022/01/07 11:43:00;;;;;;;19.27;10.98;;;4.90;99.90;;;;;;4899020;29;20183;-77
2022/01/07 11:45:29;;;;;;;21.70;10.68;;;4.80;99.90;;;;;;4899560;29;20083;-76
2022/01/07 11:48:27;;;;;;;22.25;11.15;;;4.80;99.90;;;;;;4900107;29;20048;-77
2022/01/07 11:50:55;;;;;;;19.95;11.52;;;4.80;99.90;;;;;;4901445;29;20132;-77
2022/01/07 11:53:28;;;;;;;23.77;12.88;;;4.70;99.90;;;;;;4914602;29;20138;-79
2022/01/07 11:55:59;;;;;;;25.38;13.05;;;4.70;99.90;;;;;;4890841;29;20059;-79
2022/01/07 11:58:46;;;;;;;30.98;14.07;;;4.70;99.90;;;;;;4895323;29;20052;-77
2022/01/07 12:01:29;;;;;;;27.33;13.30;;;4.70;99.90;;;;;;4911327;29;20087;-77
2022/01/07 12:03:58;;;;;;;21.75;12.18;;;4.70;99.90;;;;;;4905041;29;20521;-77
2022/01/07 12:06:27;;;;;;;25.23;12.68;;;4.70;99.90;;;;;;4915635;29;20525;-77
2022/01/07 12:09:06;;;;;;;22.55;11.80;;;4.70;99.90;;;;;;4883607;29;20056;-78
2022/01/07 12:11:47;;;;;;;24.95;12.00;;;4.70;99.90;;;;;;4898332;29;20502;-78
2022/01/07 12:14:18;;;;;;;22.98;11.75;;;4.80;99.90;;;;;;4883308;29;20047;-80
2022/01/07 12:16:49;;;;;;;17.58;10.30;;;4.80;99.90;;;;;;4907827;29;20110;-83
2022/01/07 12:19:18;;;;;;;20.88;11.45;;;4.80;99.90;;;;;;4915673;29;20048;-81
2022/01/07 12:21:46;;;;;;;18.00;9.73;;;4.80;99.90;;;;;;4882191;29;20482;-84
2022/01/07 12:24:14;;;;;;;16.65;9.10;;;4.90;99.90;;;;;;4905117;29;20063;-82
2022/01/07 12:26:40;;;;;;;18.52;9.32;;;5.10;99.90;;;;;;4914690;29;20123;-79
2022/01/07 12:29:14;;;;;;;12.85;6.30;;;5.10;99.90;;;;;;4881461;29;20673;-79
2022/01/07 12:31:49;;;;;;;9.98;5.10;;;5.10;99.90;;;;;;4899153;29;20056;-78
2022/01/07 12:34:25;;;;;;;11.80;4.20;;;5.10;99.90;;;;;;4915332;29;20063;-76
2022/01/07 12:37:05;;;;;;;10.77;3.77;;;5.00;99.90;;;;;;4898490;29;20062;-76
2022/01/07 12:39:37;;;;;;;9.95;2.95;;;5.10;99.90;;;;;;4903817;29;20071;-76
2022/01/07 12:42:04;;;;;;;11.18;2.47;;;5.00;99.90;;;;;;4898730;29;20446;-76
2022/01/07 12:44:35;;;;;;;6.43;2.22;;;5.00;99.90;;;;;;4898540;29;20056;-80
2022/01/07 12:47:01;;;;;;;4.28;1.52;;;5.00;99.90;;;;;;4899123;29;20048;-76
2022/01/07 12:49:38;;;;;;;13.40;1.98;;;4.90;99.90;;;;;;4898513;29;20055;-78
2022/01/07 12:52:20;;;;;;;6.00;1.92;;;4.70;99.90;;;;;;4897824;29;20052;-77
2022/01/07 12:54:50;;;;;;;4.93;1.10;;;4.70;99.90;;;;;;4899530;29;20056;-79
2022/01/07 12:57:23;;;;;;;5.50;1.63;;;4.90;99.90;;;;;;4883272;29;20115;-79